createdAt,value
2019-05-26T00:00:41.209Z,98031.74
2019-05-26T00:03:14.725Z,98032.69
2019-05-26T00:05:47.910Z,98030.75
2019-05-26T00:08:21.181Z,98029.44
2019-05-26T00:10:54.494Z,98026.63
2019-05-26T00:13:27.894Z,98030.16
2019-05-26T00:16:01.223Z,98031.02
2019-05-26T00:18:34.823Z,98021.19
2019-05-26T00:21:08.074Z,98023.38
2019-05-26T00:23:41.566Z,98022.63
2019-05-26T00:26:14.805Z,98020.81
2019-05-26T00:28:48.019Z,98017.28
2019-05-26T00:31:21.317Z,98020.19
2019-05-26T00:33:54.635Z,98010.86
2019-05-26T00:36:27.934Z,98010.14
2019-05-26T00:39:01.252Z,98007.23
2019-05-26T00:41:35.980Z,97999.38
2019-05-26T00:44:09.271Z,98001.06
2019-05-26T00:46:42.691Z,98001.80
2019-05-26T00:49:16.231Z,97996.10
2019-05-26T00:51:49.696Z,98000.95
2019-05-26T00:54:23.219Z,98005.41
2019-05-26T00:56:56.700Z,98009.87
2019-05-26T00:59:29.953Z,98006.36
2019-05-26T01:02:03.159Z,98011.20
2019-05-26T01:04:36.443Z,98014.59
2019-05-26T01:07:09.716Z,98012.05
2019-05-26T01:09:43.265Z,98012.78
2019-05-26T01:12:16.602Z,98016.56
2019-05-26T01:14:50.028Z,98009.77
2019-05-26T01:17:23.424Z,98011.13
2019-05-26T01:19:56.674Z,98017.64
2019-05-26T01:22:29.893Z,98015.68
2019-05-26T01:25:03.214Z,98021.52
2019-05-26T01:27:36.413Z,98023.58
2019-05-26T01:30:10.290Z,98028.06
2019-05-26T01:32:43.522Z,98026.24
2019-05-26T01:35:17.124Z,98020.91
2019-05-26T01:37:50.417Z,98030.00
2019-05-26T01:40:26.681Z,98028.78
2019-05-26T01:43:00.085Z,98031.94
2019-05-26T01:45:33.369Z,98040.41
2019-05-26T01:48:07.356Z,98033.48
2019-05-26T01:50:40.554Z,98032.75
2019-05-26T01:53:13.769Z,98040.26
2019-05-26T01:55:47.017Z,98036.27
2019-05-26T01:58:20.233Z,98039.89
2019-05-26T02:00:53.514Z,98043.77
2019-05-26T02:03:26.853Z,98045.50
2019-05-26T02:06:00.113Z,98048.31
2019-05-26T02:08:39.370Z,98048.58
2019-05-26T02:11:08.344Z,98046.03
2019-05-26T02:13:41.778Z,98047.25
2019-05-26T02:16:15.254Z,98049.52
2019-05-26T02:18:48.640Z,98048.55
2019-05-26T02:21:22.033Z,98047.22
2019-05-26T02:23:56.258Z,98048.31
2019-05-26T02:26:29.841Z,98018.10
2019-05-26T02:29:03.275Z,98045.38
2019-05-26T02:31:36.412Z,98045.98
2019-05-26T02:34:09.827Z,98050.58
2019-05-26T02:36:43.117Z,98046.73
2019-05-26T02:39:16.481Z,98040.70
2019-05-26T02:41:49.657Z,98039.01
2019-05-26T02:44:23.931Z,98046.16
2019-05-26T02:46:57.023Z,98048.94
2019-05-26T02:49:30.377Z,98051.00
2019-05-26T02:52:03.709Z,98051.73
2019-05-26T02:54:37.001Z,98050.16
2019-05-26T02:57:10.434Z,98060.09
2019-05-26T02:59:44.837Z,98053.93
2019-05-26T03:02:18.321Z,98053.30
2019-05-26T03:04:51.612Z,98050.41
2019-05-26T03:07:27.597Z,98057.55
2019-05-26T03:10:03.649Z,98055.02
2019-05-26T03:12:41.776Z,98049.80
2019-05-26T03:15:16.370Z,98046.16
2019-05-26T03:17:52.617Z,98057.05
2019-05-26T03:20:26.004Z,98055.36
2019-05-26T03:23:01.034Z,98053.56
2019-05-26T03:25:35.869Z,98059.25
2019-05-26T03:28:09.395Z,98056.95
2019-05-26T03:30:42.710Z,98058.53
2019-05-26T03:33:16.088Z,98054.30
2019-05-26T03:35:49.426Z,98059.14
2019-05-26T03:38:22.793Z,98056.70
2019-05-26T03:40:57.712Z,98062.17
2019-05-26T03:43:31.199Z,98062.55
2019-05-26T03:46:20.958Z,98063.73
2019-05-26T03:48:54.599Z,98063.14
2019-05-26T03:51:27.889Z,98065.67
2019-05-26T03:54:01.378Z,98064.91
2019-05-26T03:56:34.711Z,98079.44
2019-05-26T03:59:08.050Z,98072.30
2019-05-26T04:01:41.464Z,98077.98
2019-05-26T04:04:14.754Z,98078.83
2019-05-26T04:06:48.204Z,98076.44
2019-05-26T04:09:21.547Z,98067.95
2019-05-26T04:11:54.787Z,98067.81
2019-05-26T04:14:28.060Z,98074.95
2019-05-26T04:17:01.462Z,98072.19
2019-05-26T04:19:34.870Z,98081.27
2019-05-26T04:22:08.022Z,98074.52
2019-05-26T04:24:42.613Z,98069.08
2019-05-26T04:27:17.828Z,98074.17
2019-05-26T04:29:51.068Z,98077.30
2019-05-26T04:32:24.397Z,98069.80
2019-05-26T04:34:57.677Z,98062.72
2019-05-26T04:37:31.090Z,98069.52
2019-05-26T04:40:25.092Z,98068.95
2019-05-26T04:42:39.527Z,98076.21
2019-05-26T04:45:13.228Z,98073.27
2019-05-26T04:47:46.404Z,98077.64
2019-05-26T04:50:19.604Z,98072.84
2019-05-26T04:53:05.393Z,98072.84
2019-05-26T04:55:28.357Z,98075.77
2019-05-26T04:58:01.704Z,98074.61
2019-05-26T05:00:36.035Z,98077.97
2019-05-26T05:03:09.331Z,98072.86
2019-05-26T05:05:42.457Z,98069.73
2019-05-26T05:08:15.637Z,98070.09
2019-05-26T05:10:48.804Z,98077.33
2019-05-26T05:13:24.906Z,98076.16
2019-05-26T05:15:57.215Z,98076.91
2019-05-26T05:18:31.682Z,98074.17
2019-05-26T05:21:05.034Z,98077.47
2019-05-26T05:23:38.360Z,98074.76
2019-05-26T05:26:11.422Z,98072.08
2019-05-26T05:28:45.231Z,98076.38
2019-05-26T05:31:18.659Z,98079.77
2019-05-26T05:33:52.042Z,98079.75
2019-05-26T05:36:25.355Z,98072.39
2019-05-26T05:38:59.779Z,98078.73
2019-05-26T05:41:32.872Z,98070.01
2019-05-26T05:44:06.245Z,98070.07
2019-05-26T05:46:39.646Z,98080.84
2019-05-26T05:49:13.051Z,98073.27
2019-05-26T05:51:46.513Z,98075.54
2019-05-26T05:54:19.740Z,98085.87
2019-05-26T05:56:55.649Z,98079.38
2019-05-26T05:59:28.082Z,98072.25
2019-05-26T06:02:01.387Z,98073.12
2019-05-26T06:04:35.263Z,98078.50
2019-05-26T06:07:08.639Z,98079.20
2019-05-26T06:09:41.970Z,98081.94
2019-05-26T06:12:15.687Z,98082.42
2019-05-26T06:14:48.974Z,98083.96
2019-05-26T06:17:22.385Z,98078.45
2019-05-26T06:19:55.438Z,98077.41
2019-05-26T06:22:28.707Z,98080.44
2019-05-26T06:25:02.049Z,98081.69
2019-05-26T06:27:35.331Z,98080.03
2019-05-26T06:30:09.329Z,98081.42
2019-05-26T06:32:42.724Z,98078.46
2019-05-26T06:35:17.556Z,98079.39
2019-05-26T06:37:50.832Z,98076.12
2019-05-26T06:40:24.268Z,98075.14
2019-05-26T06:42:57.673Z,98084.23
2019-05-26T06:45:30.947Z,98078.66
2019-05-26T06:48:04.367Z,98081.98
2019-05-26T06:50:37.733Z,98081.11
2019-05-26T06:53:11.232Z,98081.18
2019-05-26T06:55:44.536Z,98079.69
2019-05-26T06:58:17.618Z,98085.92
2019-05-26T07:00:50.897Z,98085.16
2019-05-26T07:03:24.186Z,98082.77
2019-05-26T07:05:57.555Z,98085.83
2019-05-26T07:08:30.785Z,98078.09
2019-05-26T07:11:04.138Z,98091.36
2019-05-26T07:13:37.528Z,98089.77
2019-05-26T07:16:11.590Z,98085.70
2019-05-26T07:18:44.808Z,98084.58
2019-05-26T07:21:17.989Z,98080.72
2019-05-26T07:23:51.397Z,98073.12
2019-05-26T07:26:26.327Z,98072.81
2019-05-26T07:28:59.709Z,98080.44
2019-05-26T07:31:33.107Z,98085.53
2019-05-26T07:34:06.605Z,98079.44
2019-05-26T07:36:40.064Z,98082.32
2019-05-26T07:39:13.242Z,98078.06
2019-05-26T07:41:46.668Z,98083.85
2019-05-26T07:44:20.056Z,98077.52
2019-05-26T07:46:53.477Z,98078.05
2019-05-26T07:49:26.676Z,98076.56
2019-05-26T07:51:59.786Z,98078.83
2019-05-26T07:54:33.051Z,98078.55
2019-05-26T07:57:06.550Z,98081.20
2019-05-26T07:59:39.770Z,98078.80
2019-05-26T08:02:13.018Z,98062.41
2019-05-26T08:04:46.344Z,98077.22
2019-05-26T08:07:23.047Z,98074.66
2019-05-26T08:09:55.143Z,98073.34
2019-05-26T08:12:30.759Z,98079.89
2019-05-26T08:15:03.843Z,98079.14
2019-05-26T08:17:37.015Z,98074.42
2019-05-26T08:20:11.489Z,98072.23
2019-05-26T08:22:44.935Z,98069.73
2019-05-26T08:25:19.091Z,98074.05
2019-05-26T08:27:52.364Z,98076.64
2019-05-26T08:30:25.697Z,98076.30
2019-05-26T08:32:59.041Z,98072.45
2019-05-26T08:35:32.412Z,98069.92
2019-05-26T08:38:05.622Z,98066.59
2019-05-26T08:40:38.908Z,98072.81
2019-05-26T08:43:12.343Z,98064.78
2019-05-26T08:45:45.497Z,98070.05
2019-05-26T08:48:18.845Z,98068.88
2019-05-26T08:50:51.989Z,98068.36
2019-05-26T08:53:25.311Z,98069.83
2019-05-26T08:55:58.681Z,98066.18
2019-05-26T08:58:31.869Z,98069.88
2019-05-26T09:01:05.148Z,98066.98
2019-05-26T09:03:38.362Z,98064.34
2019-05-26T09:06:11.854Z,98068.99
2019-05-26T09:08:45.054Z,98062.12
2019-05-26T09:11:18.318Z,98056.68
2019-05-26T09:13:51.893Z,98064.09
2019-05-26T09:16:25.244Z,98061.99
2019-05-26T09:18:58.531Z,98063.75
2019-05-26T09:21:31.809Z,98058.88
2019-05-26T09:24:05.231Z,98061.50
2019-05-26T09:26:38.703Z,98061.23
2019-05-26T09:29:12.259Z,98062.44
2019-05-26T09:31:47.849Z,98053.29
2019-05-26T09:34:21.114Z,98060.75
2019-05-26T09:36:57.049Z,98064.22
2019-05-26T09:39:28.968Z,98059.98
2019-05-26T09:42:02.085Z,98057.87
2019-05-26T09:44:36.317Z,98065.08
2019-05-26T09:47:09.471Z,98062.77
2019-05-26T09:49:44.737Z,98059.86
2019-05-26T09:52:18.923Z,98044.77
2019-05-26T09:54:53.078Z,98049.09
2019-05-26T09:57:26.351Z,98054.11
2019-05-26T09:59:59.533Z,98048.16
2019-05-26T10:02:34.067Z,98049.77
2019-05-26T10:05:07.862Z,98044.67
2019-05-26T10:07:41.212Z,98031.41
2019-05-26T10:10:15.948Z,98031.41
2019-05-26T10:12:49.188Z,98055.38
2019-05-26T10:15:22.670Z,98051.16
2019-05-26T10:17:56.094Z,98053.02
2019-05-26T10:20:29.561Z,98047.58
2019-05-26T10:23:02.667Z,98052.92
2019-05-26T10:25:36.061Z,98045.45
2019-05-26T10:28:09.360Z,98051.91
2019-05-26T10:30:42.543Z,98046.94
2019-05-26T10:33:15.777Z,98046.77
2019-05-26T10:35:49.121Z,98044.80
2019-05-26T10:38:22.241Z,98045.02
2019-05-26T10:40:55.519Z,98049.56
2019-05-26T10:43:28.626Z,98045.17
2019-05-26T10:46:01.998Z,98037.09
2019-05-26T10:48:35.318Z,98043.28
2019-05-26T10:51:08.551Z,98038.76
2019-05-26T10:53:41.782Z,98034.15
2019-05-26T10:56:14.962Z,98036.76
2019-05-26T10:58:48.191Z,98027.22
2019-05-26T11:01:21.570Z,98031.08
2019-05-26T11:03:54.877Z,98026.41
2019-05-26T11:06:28.233Z,98033.69
2019-05-26T11:09:01.440Z,98031.81
2019-05-26T11:11:35.453Z,98033.77
2019-05-26T11:14:08.836Z,98030.45
2019-05-26T11:16:42.153Z,98023.31
2019-05-26T11:19:15.515Z,98025.48
2019-05-26T11:21:48.754Z,98029.70
2019-05-26T11:24:22.340Z,98026.50
2019-05-26T11:27:06.326Z,98016.94
2019-05-26T11:29:30.778Z,98028.06
2019-05-26T11:32:05.313Z,98021.89
2019-05-26T11:34:38.813Z,98014.04
2019-05-26T11:37:11.884Z,98015.48
2019-05-26T11:39:45.503Z,98001.50
2019-05-26T11:42:21.211Z,97997.92
2019-05-26T11:44:54.683Z,98002.45
2019-05-26T11:47:28.210Z,97997.51
2019-05-26T11:50:01.552Z,97996.59
2019-05-26T11:52:34.591Z,97991.02
2019-05-26T11:55:08.568Z,97989.70
2019-05-26T11:57:41.958Z,97987.14
2019-05-26T12:00:16.794Z,97990.53
2019-05-26T12:02:50.385Z,97999.98
2019-05-26T12:05:23.572Z,97996.16
2019-05-26T12:07:56.955Z,97997.89
2019-05-26T12:10:30.263Z,97993.46
2019-05-26T12:13:03.647Z,97989.04
2019-05-26T12:15:36.954Z,97990.30
2019-05-26T12:18:10.426Z,97983.78
2019-05-26T12:20:44.072Z,97980.59
2019-05-26T12:23:17.258Z,97981.16
2019-05-26T12:25:50.539Z,97977.05
2019-05-26T12:28:23.779Z,97971.70
2019-05-26T12:30:56.789Z,97965.33
2019-05-26T12:33:30.108Z,97969.51
2019-05-26T12:36:03.512Z,97973.77
2019-05-26T12:38:51.305Z,97970.30
2019-05-26T12:41:24.650Z,97965.02
2019-05-26T12:43:57.957Z,97963.01
2019-05-26T12:46:31.433Z,97959.95
2019-05-26T12:49:05.231Z,97949.41
2019-05-26T12:51:38.428Z,97943.68
2019-05-26T12:54:11.791Z,97930.73
2019-05-26T12:56:45.188Z,97937.99
2019-05-26T12:59:18.669Z,97939.25
2019-05-26T13:01:51.776Z,97941.12
2019-05-26T13:04:25.201Z,97932.62
2019-05-26T13:06:58.584Z,97939.48
2019-05-26T13:09:35.248Z,97935.61
2019-05-26T13:12:08.780Z,97934.48
2019-05-26T13:14:42.069Z,97935.63
2019-05-26T13:17:15.437Z,97940.11
2019-05-26T13:19:48.692Z,97940.25
2019-05-26T13:22:22.044Z,97940.25
2019-05-26T13:24:55.228Z,97939.58
2019-05-26T13:27:28.660Z,97946.05
2019-05-26T13:30:01.908Z,97943.89
2019-05-26T13:32:35.212Z,97935.69
2019-05-26T13:35:09.333Z,97936.92
2019-05-26T13:37:42.736Z,97932.14
2019-05-26T13:40:16.630Z,97921.66
2019-05-26T13:42:49.846Z,97921.97
2019-05-26T13:45:23.675Z,97921.39
2019-05-26T13:47:57.144Z,97928.08
2019-05-26T13:50:30.406Z,97925.61
2019-05-26T13:53:03.958Z,97918.25
2019-05-26T13:55:37.087Z,97926.05
2019-05-26T13:58:10.328Z,97923.79
2019-05-26T14:00:43.840Z,97932.45
2019-05-26T14:03:17.227Z,97936.56
2019-05-26T14:05:50.595Z,97936.56
2019-05-26T14:08:23.696Z,97935.81
2019-05-26T14:10:57.080Z,97932.32
2019-05-26T14:13:30.367Z,97935.33
2019-05-26T14:16:04.760Z,97944.68
2019-05-26T14:18:38.017Z,97935.76
2019-05-26T14:21:11.419Z,97929.72
2019-05-26T14:23:44.688Z,97928.62
2019-05-26T14:26:17.871Z,97942.06
2019-05-26T14:28:51.064Z,97929.88
2019-05-26T14:31:24.239Z,97937.41
2019-05-26T14:33:57.573Z,97934.61
2019-05-26T14:36:30.941Z,97930.02
2019-05-26T14:39:06.006Z,97932.89
2019-05-26T14:41:39.261Z,97930.73
2019-05-26T14:44:12.582Z,97944.52
2019-05-26T14:46:46.256Z,97925.81
2019-05-26T14:49:19.476Z,97936.95
2019-05-26T14:51:53.245Z,97934.09
2019-05-26T14:54:26.456Z,97937.40
2019-05-26T14:57:00.173Z,97945.59
2019-05-26T14:59:33.400Z,97936.61
2019-05-26T15:02:06.865Z,97944.98
2019-05-26T15:04:40.048Z,97936.77
2019-05-26T15:07:13.326Z,97942.72
2019-05-26T15:09:46.465Z,97962.93
2019-05-26T15:12:19.857Z,97941.59
2019-05-26T15:14:53.132Z,97941.46
2019-05-26T15:17:26.445Z,97931.52
2019-05-26T15:20:00.074Z,97933.66
2019-05-26T15:22:33.329Z,97938.91
2019-05-26T15:25:08.095Z,97935.80
2019-05-26T15:27:41.235Z,97941.23
2019-05-26T15:30:17.598Z,97933.42
2019-05-26T15:32:50.776Z,97940.14
2019-05-26T15:35:24.103Z,97929.59
2019-05-26T15:37:57.415Z,97938.76
2019-05-26T15:40:30.926Z,97934.91
2019-05-26T15:43:04.474Z,97950.84
2019-05-26T15:45:38.796Z,97942.22
2019-05-26T15:48:12.311Z,97948.08
2019-05-26T15:50:45.600Z,97944.98
2019-05-26T15:53:18.980Z,97945.06
2019-05-26T15:55:52.502Z,97948.81
2019-05-26T15:58:26.106Z,97952.84
2019-05-26T16:00:59.485Z,97951.56
2019-05-26T16:03:32.674Z,97956.89
2019-05-26T16:06:06.500Z,97957.64
2019-05-26T16:08:39.782Z,97962.64
2019-05-26T16:11:13.618Z,97959.05
2019-05-26T16:13:46.901Z,97961.70
2019-05-26T16:16:20.180Z,97954.19
2019-05-26T16:18:53.506Z,97964.36
2019-05-26T16:21:28.402Z,97966.45
2019-05-26T16:24:01.704Z,97961.05
2019-05-26T16:26:34.994Z,97960.52
2019-05-26T16:29:08.086Z,97964.34
2019-05-26T16:31:41.281Z,97964.88
2019-05-26T16:34:14.516Z,97966.13
2019-05-26T16:36:48.121Z,97954.47
2019-05-26T16:39:36.056Z,97957.00
2019-05-26T16:41:56.962Z,97953.83
2019-05-26T16:44:30.866Z,97953.83
2019-05-26T16:47:04.252Z,97960.08
2019-05-26T16:49:40.631Z,97958.82
2019-05-26T16:52:13.909Z,97953.09
2019-05-26T16:54:49.122Z,97952.02
2019-05-26T16:57:23.074Z,97957.43
2019-05-26T16:59:56.323Z,97949.56
2019-05-26T17:02:33.085Z,97953.41
2019-05-26T17:05:06.925Z,97954.66
2019-05-26T17:07:40.417Z,97950.20
2019-05-26T17:10:14.117Z,97949.84
2019-05-26T17:12:47.385Z,97947.86
2019-05-26T17:15:20.932Z,97950.64
2019-05-26T17:17:54.171Z,97950.88
2019-05-26T17:20:27.239Z,97941.13
2019-05-26T17:23:00.466Z,97940.45
2019-05-26T17:25:33.865Z,97944.83
2019-05-26T17:28:07.143Z,97934.67
2019-05-26T17:30:40.279Z,97933.83
2019-05-26T17:33:13.661Z,97936.39
2019-05-26T17:35:49.218Z,97945.47
2019-05-26T17:38:22.696Z,97939.16
2019-05-26T17:40:55.994Z,97936.66
2019-05-26T17:43:33.070Z,97942.03
2019-05-26T17:46:06.804Z,97940.79
2019-05-26T17:48:40.386Z,97946.66
2019-05-26T17:51:14.694Z,97948.99
2019-05-26T17:53:47.974Z,97948.50
2019-05-26T17:56:21.520Z,97952.86
2019-05-26T17:58:54.999Z,97951.02
2019-05-26T18:01:28.525Z,97938.64
2019-05-26T18:04:01.988Z,97952.87
2019-05-26T18:06:35.458Z,97956.61
2019-05-26T18:09:08.691Z,97971.88
2019-05-26T18:11:42.039Z,97966.50
2019-05-26T18:14:15.163Z,97961.36
2019-05-26T18:16:48.481Z,97968.09
2019-05-26T18:19:21.540Z,97970.34
2019-05-26T18:21:54.895Z,97965.41
2019-05-26T18:24:28.647Z,97966.75
2019-05-26T18:27:01.783Z,97966.05
2019-05-26T18:29:35.200Z,97971.33
2019-05-26T18:32:08.859Z,97974.53
2019-05-26T18:34:42.222Z,97966.35
2019-05-26T18:37:15.417Z,97972.47
2019-05-26T18:39:48.785Z,97975.66
2019-05-26T18:42:22.369Z,97975.61
2019-05-26T18:44:56.640Z,97971.45
2019-05-26T18:47:30.355Z,97973.06
2019-05-26T18:50:03.649Z,97972.23
2019-05-26T18:52:37.063Z,97973.48
2019-05-26T18:55:10.829Z,97976.43
2019-05-26T18:57:44.292Z,97973.02
2019-05-26T19:00:18.488Z,97977.30
2019-05-26T19:02:51.869Z,97984.25
2019-05-26T19:05:33.807Z,97982.20
2019-05-26T19:08:00.512Z,97987.20
2019-05-26T19:10:33.921Z,97993.17
2019-05-26T19:13:10.609Z,97989.92
2019-05-26T19:15:42.326Z,97989.84
2019-05-26T19:18:20.362Z,97983.98
2019-05-26T19:20:51.395Z,97990.08
2019-05-26T19:23:24.710Z,97994.13
2019-05-26T19:25:58.053Z,97990.36
2019-05-26T19:28:33.735Z,97993.88
2019-05-26T19:31:07.160Z,97997.92
2019-05-26T19:33:41.021Z,97998.68
2019-05-26T19:36:14.313Z,98004.55
2019-05-26T19:38:47.499Z,98004.68
2019-05-26T19:41:20.795Z,98003.61
2019-05-26T19:43:54.410Z,97996.58
2019-05-26T19:46:29.362Z,97995.77
2019-05-26T19:49:02.612Z,97994.30
2019-05-26T19:51:36.061Z,98002.69
2019-05-26T19:54:09.357Z,98003.20
2019-05-26T19:56:42.508Z,98006.23
2019-05-26T19:59:15.902Z,98000.44
2019-05-26T20:01:49.235Z,98001.18
2019-05-26T20:04:22.769Z,98000.92
2019-05-26T20:06:56.215Z,97998.50
2019-05-26T20:09:31.975Z,97995.73
2019-05-26T20:12:07.280Z,98003.51
2019-05-26T20:14:40.673Z,98006.42
2019-05-26T20:17:14.107Z,98008.83
2019-05-26T20:19:47.266Z,98011.98
2019-05-26T20:22:24.320Z,98005.67
2019-05-26T20:24:55.284Z,98008.83
2019-05-26T20:27:28.385Z,98008.45
2019-05-26T20:30:01.678Z,98008.34
2019-05-26T20:32:36.715Z,98006.64
2019-05-26T20:35:10.202Z,98007.00
2019-05-26T20:37:43.505Z,98010.41
2019-05-26T20:40:16.696Z,98015.61
2019-05-26T20:42:53.690Z,98009.33
2019-05-26T20:45:26.858Z,98012.95
2019-05-26T20:48:01.148Z,98020.95
2019-05-26T20:50:34.686Z,98015.27
2019-05-26T20:53:07.890Z,98015.36
2019-05-26T20:55:41.360Z,98016.34
2019-05-26T20:58:14.796Z,98022.30
2019-05-26T21:00:47.886Z,98015.14
2019-05-26T21:03:21.181Z,98015.73
2019-05-26T21:05:54.527Z,98018.41
2019-05-26T21:08:27.745Z,98017.17
2019-05-26T21:11:01.045Z,98016.09
2019-05-26T21:13:34.361Z,98023.61
2019-05-26T21:16:07.718Z,98030.52
2019-05-26T21:18:40.819Z,98027.69
2019-05-26T21:21:14.095Z,98033.87
2019-05-26T21:23:47.433Z,98035.94
2019-05-26T21:26:20.740Z,98035.66
2019-05-26T21:28:53.982Z,98037.23
2019-05-26T21:31:27.224Z,98040.98
2019-05-26T21:34:00.493Z,98045.10
2019-05-26T21:36:33.911Z,98048.52
2019-05-26T21:39:08.606Z,98045.38
2019-05-26T21:41:41.780Z,98042.32
2019-05-26T21:44:15.005Z,98050.91
2019-05-26T21:46:48.376Z,98046.52
2019-05-26T21:49:21.908Z,98048.93
2019-05-26T21:51:55.283Z,98052.56
2019-05-26T21:54:29.499Z,98051.72
2019-05-26T21:57:02.764Z,98059.47
2019-05-26T21:59:36.109Z,98061.93
2019-05-26T22:02:09.459Z,98060.43
2019-05-26T22:04:42.908Z,98050.48
2019-05-26T22:07:16.170Z,98055.28
2019-05-26T22:09:50.198Z,98055.75
2019-05-26T22:12:23.380Z,98054.04
2019-05-26T22:14:56.911Z,98059.68
2019-05-26T22:17:30.175Z,98059.30
2019-05-26T22:20:03.960Z,98057.23
2019-05-26T22:22:38.333Z,98062.38
2019-05-26T22:25:11.923Z,98066.84
2019-05-26T22:27:45.308Z,98070.52
